Time;durP1;ratioP1;P1;durP2;ratioP2;P2;SDS_P1;SDS_P2;PMS_P1;PMS_P2;Temp;Humidity;BMP_temperature;BMP_pressure;BME280_temperature;BME280_humidity;BME280_pressure;Samples;Min_cycle;Max_cycle;Signal;HPM_P1;HPM_P2
2024/02/18 00:00:11;;;;;;;33.80;13.80;;;14.20;99.90;;;-144.05;83.47;57001.75;5022074;28;20034;-81
2024/02/18 00:02:38;;;;;;;24.85;13.48;;;;;;;-144.05;83.18;57020.88;5024044;28;20054;-80
2024/02/18 00:05:05;;;;;;;27.52;12.90;;;7.70;99.90;;;-144.05;83.51;56991.13;5025104;28;20022;-81
2024/02/18 00:07:32;;;;;;;29.48;14.05;;;;;;;-144.05;82.79;57006.00;5024405;28;20026;-79
2024/02/18 00:09:58;;;;;;;26.80;13.52;;;;;;;-144.05;83.13;57014.50;5022505;28;20661;-80
2024/02/18 00:12:24;;;;;;;25.98;13.75;;;;;;;-144.05;83.40;56997.50;5023069;28;20022;-81
2024/02/18 00:14:51;;;;;;;24.98;12.23;;;14.20;99.90;;;-144.05;83.17;57012.38;5021373;28;20065;-80
2024/02/18 00:17:20;;;;;;;23.98;12.93;;;;;;;-144.05;83.05;57052.75;5022999;28;20050;-80
2024/02/18 00:19:46;;;;;;;34.60;13.00;;;7.50;99.90;;;-144.05;82.72;56972.03;5022737;28;20124;-80
2024/02/18 00:22:12;;;;;;;27.00;13.82;;;8.50;99.90;;;-144.05;82.26;56976.28;5022067;28;20641;-79
2024/02/18 00:24:38;;;;;;;28.17;13.10;;;;;;;-144.05;82.50;56989.00;5027380;28;20037;-81
2024/02/18 00:27:04;;;;;;;28.30;13.23;;;14.60;99.90;;;-144.05;82.22;57003.88;5022381;28;20506;-80
2024/02/18 00:29:30;;;;;;;26.38;12.82;;;11.20;99.90;;;-144.05;81.82;56993.25;5021984;28;20022;-80
2024/02/18 00:31:56;;;;;;;26.70;12.93;;;;;;;-144.05;82.64;57008.13;5020908;28;20025;-81
2024/02/18 00:34:22;;;;;;;25.02;13.77;;;8.00;99.90;;;-144.05;82.21;57014.50;5023032;28;20045;-80
2024/02/18 00:36:48;;;;;;;33.40;14.52;;;7.30;99.90;;;-144.05;82.17;56991.13;5023822;28;20050;-81
2024/02/18 00:39:15;;;;;;;24.92;12.88;;;11.10;99.90;;;-144.05;81.65;57016.63;5023414;28;20030;-81
2024/02/18 00:41:44;;;;;;;27.45;13.63;;;;;;;-144.05;82.10;57014.50;5024345;28;20052;-80
2024/02/18 00:44:10;;;;;;;26.50;13.02;;;7.40;99.90;;;-144.05;81.56;57014.50;5025067;28;20037;-81
2024/02/18 00:46:36;;;;;;;28.33;12.48;;;8.50;99.90;;;-144.05;81.25;56995.38;5025191;28;20179;-82
2024/02/18 00:49:03;;;;;;;28.50;13.05;;;;;;;-144.05;81.21;56984.78;5025942;28;20022;-80
2024/02/18 00:51:29;;;;;;;23.63;13.02;;;14.10;99.90;;;-144.05;81.77;57008.13;5024658;28;20021;-79
2024/02/18 00:53:56;;;;;;;22.25;12.25;;;7.70;99.90;;;-144.05;81.73;57008.13;5026455;28;20048;-78
2024/02/18 00:56:23;;;;;;;25.67;12.82;;;;;;;-144.05;81.76;57006.00;5024533;28;20034;-81
2024/02/18 00:58:49;;;;;;;25.90;12.85;;;;;;;-144.05;81.40;57010.25;5023460;28;20097;-81
2024/02/18 01:01:16;;;;;;;25.60;11.25;;;;;;;-144.05;81.08;57020.88;5025480;28;20037;-81
2024/02/18 01:03:42;;;;;;;25.48;11.32;;;;;;;-144.05;81.19;57010.25;5023843;28;20042;-80
2024/02/18 01:06:08;;;;;;;20.48;10.80;;;8.10;99.90;;;-144.05;80.79;57003.88;5030372;28;20030;-77
2024/02/18 01:08:33;;;;;;;21.50;10.95;;;7.80;99.90;;;-144.05;80.91;56997.50;5023561;28;20044;-80
2024/02/18 01:11:00;;;;;;;18.27;10.05;;;;;;;-144.05;80.79;57031.50;5023398;28;20427;-81
2024/02/18 01:13:26;;;;;;;17.50;9.75;;;14.50;99.90;;;-144.05;80.06;56984.78;5022839;28;20022;-80
2024/02/18 01:15:52;;;;;;;17.90;8.63;;;8.50;99.90;;;-144.05;79.82;57012.38;5023323;28;20033;-81
2024/02/18 01:18:18;;;;;;;22.23;8.05;;;;;;;-144.05;79.40;57012.38;5022309;28;20022;-81
2024/02/18 01:20:44;;;;;;;20.23;8.52;;;7.50;99.90;;;-144.05;78.94;56982.66;5021363;28;20032;-81
2024/02/18 01:23:11;;;;;;;13.23;7.28;;;;;;;-144.05;78.53;57006.00;5022977;28;20118;-81
2024/02/18 01:25:37;;;;;;;17.75;7.57;;;;;;;-144.05;78.50;56991.13;5025335;28;20032;-81
2024/02/18 01:28:04;;;;;;;15.90;7.43;;;7.70;99.90;;;-144.05;78.82;57006.00;5023047;28;20022;-81
2024/02/18 01:30:30;;;;;;;13.25;8.13;;;8.50;99.90;;;-144.05;78.71;57012.38;5021879;28;20026;-81
2024/02/18 01:32:57;;;;;;;14.30;7.88;;;;;;;-144.05;78.45;56995.38;5026468;28;20036;-81
2024/02/18 01:35:23;;;;;;;15.07;7.88;;;;;;;-144.05;78.26;57029.38;5026382;28;20018;-78
2024/02/18 01:37:49;;;;;;;15.93;8.30;;;;;;;-144.05;78.03;56991.13;5029290;28;20034;-83
2024/02/18 01:40:16;;;;;;;17.30;8.80;;;;;;;-144.05;77.91;56993.25;5021397;28;20033;-82
2024/02/18 01:42:43;;;;;;;19.63;8.15;;;;;;;-144.05;78.13;56995.38;5018252;28;20156;-80
2024/02/18 01:45:12;;;;;;;14.70;7.38;;;7.50;99.90;;;-144.05;78.06;56972.03;5020463;28;20049;-82
2024/02/18 01:47:45;;;;;;;15.98;7.90;;;7.60;99.90;;;-144.05;78.27;57020.88;5020026;28;20083;-82
2024/02/18 01:50:11;;;;;;;19.88;7.78;;;13.80;99.90;;;-144.05;77.97;57001.75;5018502;28;20021;-81
2024/02/18 01:52:44;;;;;;;16.42;8.73;;;7.60;99.90;;;-144.05;77.91;56989.00;5026614;28;20030;-78
2024/02/18 01:55:14;;;;;;;16.33;7.68;;;10.10;99.90;;;-144.05;77.79;56991.13;5023060;28;20042;-80
2024/02/18 01:57:43;;;;;;;13.93;7.70;;;10.10;99.90;;;-144.05;77.54;57010.25;5024826;28;20032;-82
2024/02/18 02:00:15;;;;;;;16.60;7.78;;;10.00;99.90;;;-144.05;77.65;56989.00;5024237;28;20018;-79
2024/02/18 02:02:45;;;;;;;13.30;6.90;;;7.60;99.90;;;-144.05;77.17;56976.28;5025428;28;20021;-78
2024/02/18 02:05:18;;;;;;;19.95;8.02;;;7.50;99.90;;;-144.05;77.64;57001.75;5018604;28;20026;-82
2024/02/18 02:07:49;;;;;;;16.75;7.70;;;7.50;99.90;;;-144.05;77.77;56972.03;5031140;28;20052;-83
2024/02/18 02:10:17;;;;;;;15.05;6.93;;;;;;;-144.05;77.66;56993.25;5019228;28;20065;-82
2024/02/18 02:12:44;;;;;;;13.20;6.75;;;14.40;99.90;;;-144.05;77.52;57023.00;5018022;28;20108;-81
2024/02/18 02:15:14;;;;;;;16.58;6.78;;;9.90;99.90;;;-144.05;77.83;56989.00;5019553;28;20056;-83
2024/02/18 02:17:40;;;;;;;12.45;6.40;;;7.50;99.90;;;-144.05;77.60;57014.50;5017335;28;20030;-82
2024/02/18 02:20:09;;;;;;;15.02;6.90;;;7.60;99.90;;;-144.05;77.48;57008.13;5018223;28;20018;-81
2024/02/18 02:22:39;;;;;;;12.98;6.18;;;14.40;99.90;;;-144.05;77.18;57020.88;5019097;28;20073;-83
2024/02/18 02:25:10;;;;;;;12.38;6.32;;;10.00;99.90;;;-144.05;77.08;56993.25;5030353;28;20300;-80
2024/02/18 02:27:41;;;;;;;16.45;6.88;;;8.30;99.90;;;-144.05;76.91;57008.13;5024397;28;20029;-81
2024/02/18 02:30:07;;;;;;;11.07;6.00;;;14.60;99.90;;;-144.05;77.13;56995.38;5023099;28;20029;-80
2024/02/18 02:32:35;;;;;;;13.43;6.70;;;14.10;99.90;;;-144.05;77.35;57014.50;5021945;28;20033;-80
2024/02/18 02:35:03;;;;;;;15.65;6.15;;;8.40;99.90;;;-144.05;77.69;57001.75;5021462;28;20030;-80
2024/02/18 02:37:30;;;;;;;14.73;6.25;;;7.90;99.90;;;-144.05;77.63;57027.25;5021324;28;20441;-80
2024/02/18 02:39:56;;;;;;;13.20;6.40;;;7.70;99.90;;;-144.05;77.88;57003.88;5023329;28;20025;-80
2024/02/18 02:42:22;;;;;;;14.15;7.13;;;9.80;99.90;;;-144.05;78.45;57003.88;5025867;28;20032;-80
2024/02/18 02:44:49;;;;;;;11.77;6.60;;;;;;;-144.05;78.15;56989.00;5025392;28;20030;-80
2024/02/18 02:47:14;;;;;;;15.90;6.70;;;14.10;99.90;;;-144.05;78.45;57023.00;5026428;28;20105;-81
2024/02/18 02:49:41;;;;;;;14.30;6.90;;;;;;;-144.05;78.37;57016.63;5027199;28;20104;-80
2024/02/18 02:52:07;;;;;;;23.95;8.27;;;;;;;-144.05;78.45;57023.00;5023110;28;20054;-80
2024/02/18 02:54:33;;;;;;;14.63;7.35;;;7.60;99.90;;;-144.05;78.96;57010.25;5023759;28;20077;-80
2024/02/18 02:56:59;;;;;;;13.57;7.07;;;;;;;-144.05;78.65;56999.63;5024208;28;20105;-82
2024/02/18 02:59:25;;;;;;;15.60;7.15;;;;;;;-144.05;78.51;57003.88;5026491;28;20112;-81
2024/02/18 03:01:51;;;;;;;21.15;8.45;;;7.10;99.90;;;-144.05;78.50;57003.88;5025985;28;20109;-78
2024/02/18 03:04:17;;;;;;;14.75;7.65;;;9.10;99.90;;;-144.05;78.89;56980.53;5024691;28;20029;-80
2024/02/18 03:06:43;;;;;;;14.10;6.70;;;8.30;99.90;;;-144.05;79.27;57023.00;5024408;28;20033;-80
2024/02/18 03:09:10;;;;;;;15.05;6.68;;;;;;;-144.05;78.64;57014.50;5024394;28;20021;-78
2024/02/18 03:11:36;;;;;;;15.60;7.00;;;14.20;99.90;;;-144.05;78.63;57025.13;5024232;28;20022;-81
2024/02/18 03:14:02;;;;;;;14.85;7.00;;;;;;;-144.05;78.51;57029.38;5024734;28;20040;-80
2024/02/18 03:16:28;;;;;;;12.63;6.55;;;8.90;99.90;;;-144.05;78.25;56989.00;5024490;28;20037;-80
2024/02/18 03:18:54;;;;;;;11.38;5.80;;;7.10;99.90;;;-144.05;78.39;57006.00;5024486;28;20029;-81
2024/02/18 03:21:24;;;;;;;12.15;5.88;;;9.50;99.90;;;-144.05;78.05;57023.00;5024993;28;20105;-80
2024/02/18 03:23:53;;;;;;;11.65;6.22;;;11.40;99.90;;;-144.05;78.02;57027.25;5021451;28;20034;-81
2024/02/18 03:26:19;;;;;;;11.38;5.63;;;7.60;99.90;;;-144.05;77.85;57003.88;5029070;28;20036;-79
2024/02/18 03:28:45;;;;;;;13.55;6.22;;;7.80;99.90;;;-144.05;77.54;56982.66;5023232;28;20034;-80
2024/02/18 03:31:20;;;;;;;15.48;5.75;;;;;;;-144.05;77.56;57003.88;5024413;28;20076;-79
2024/02/18 03:33:47;;;;;;;10.60;5.50;;;13.80;99.90;;;-144.05;77.25;57003.88;5023419;28;20109;-80
2024/02/18 03:36:13;;;;;;;12.75;5.72;;;11.20;99.90;;;-144.05;77.29;57012.38;5022815;28;20034;-79
2024/02/18 03:38:40;;;;;;;10.93;5.28;;;8.70;99.90;;;-144.05;77.49;57012.38;5022394;28;20101;-81
2024/02/18 03:41:07;;;;;;;9.15;4.93;;;7.40;99.90;;;-144.05;77.90;56976.28;5025123;28;20018;-80
2024/02/18 03:43:34;;;;;;;11.32;5.82;;;9.50;99.90;;;-144.05;78.15;57003.88;5022577;28;20037;-80
2024/02/18 03:46:00;;;;;;;10.32;4.82;;;7.90;99.90;;;-144.05;77.63;56997.50;5022787;28;20384;-81
2024/02/18 03:48:26;;;;;;;9.10;4.82;;;7.60;99.90;;;-144.05;76.83;57010.25;5025110;28;20065;-81
2024/02/18 03:50:52;;;;;;;11.25;5.57;;;7.60;99.90;;;-144.05;76.49;57006.00;5022615;28;20034;-82
2024/02/18 03:53:18;;;;;;;12.82;6.18;;;;;;;-144.05;76.62;56989.00;5023254;28;20034;-82
2024/02/18 03:55:44;;;;;;;12.65;5.53;;;7.80;99.90;;;-144.05;76.22;57031.50;5023550;28;20189;-81
2024/02/18 03:58:11;;;;;;;10.75;6.05;;;;;;;-144.05;76.73;57023.00;5026925;28;20069;-81
2024/02/18 04:00:38;;;;;;;10.45;6.20;;;11.10;99.90;;;-144.05;75.90;57023.00;5022207;28;20520;-81
2024/02/18 04:03:04;;;;;;;12.38;5.65;;;;;;;-144.05;76.66;57035.75;5023502;28;20032;-78
2024/02/18 04:05:30;;;;;;;11.48;5.95;;;;;;;-144.05;76.16;57025.13;5024832;28;20360;-80
2024/02/18 04:07:57;;;;;;;13.18;6.55;;;;;;;-144.05;76.73;57006.00;5023441;28;20403;-79
2024/02/18 04:10:22;;;;;;;10.73;5.50;;;7.60;99.90;;;-144.05;76.15;57023.00;5024631;28;20045;-80
2024/02/18 04:12:49;;;;;;;10.50;6.05;;;;;;;-144.05;75.76;57003.88;5025164;28;20041;-80
2024/02/18 04:15:15;;;;;;;11.77;6.05;;;7.20;99.90;;;-144.05;76.31;57023.00;5022426;28;20045;-80
2024/02/18 04:17:42;;;;;;;12.13;5.65;;;;;;;-144.05;76.10;57040.00;5025312;28;20090;-79
2024/02/18 04:20:09;;;;;;;12.15;5.65;;;;;;;-144.05;76.48;57033.63;5022819;28;20060;-81
2024/02/18 04:22:35;;;;;;;12.10;5.53;;;7.50;99.90;;;-144.05;76.60;56997.50;5026656;28;20026;-83
2024/02/18 04:25:01;;;;;;;10.48;5.43;;;7.40;99.90;;;-144.05;75.73;56995.38;5030103;28;20033;-82
2024/02/18 04:27:26;;;;;;;12.05;5.10;;;8.10;99.90;;;-144.05;75.67;57044.25;5018085;28;20041;-79
2024/02/18 04:29:53;;;;;;;11.52;5.68;;;;;;;-144.05;75.53;57008.13;5021111;28;20523;-83
2024/02/18 04:32:19;;;;;;;10.40;5.93;;;;;;;-144.05;75.03;57023.00;5016528;28;20053;-82
2024/02/18 04:34:45;;;;;;;9.82;5.65;;;;;;;-144.05;74.85;57010.25;5016630;28;20061;-83
2024/02/18 04:37:11;;;;;;;7.97;5.00;;;7.50;99.90;;;-144.05;74.91;56993.25;5017089;28;20049;-82
2024/02/18 04:39:39;;;;;;;8.32;5.00;;;9.30;99.90;;;-144.05;74.31;57006.00;5020543;28;20026;-81
2024/02/18 04:42:05;;;;;;;9.23;5.10;;;7.30;99.90;;;-144.05;75.24;57033.63;5021061;28;20034;-81
2024/02/18 04:44:33;;;;;;;11.60;5.28;;;7.30;99.90;;;-144.05;74.88;57003.88;5023181;28;20024;-79
2024/02/18 04:46:59;;;;;;;10.80;4.60;;;7.40;99.90;;;-144.05;74.37;57014.50;5021452;28;20065;-78
2024/02/18 04:49:25;;;;;;;8.15;5.40;;;7.50;99.90;;;-144.05;74.09;57040.00;5022287;28;20099;-78
2024/02/18 04:51:52;;;;;;;10.48;5.25;;;;;;;-144.05;73.55;57031.50;5022009;28;20030;-80
2024/02/18 04:54:18;;;;;;;8.70;5.35;;;7.50;99.90;;;-144.05;73.74;57027.25;5021585;28;20079;-80
2024/02/18 04:56:43;;;;;;;9.15;4.93;;;8.10;99.90;;;-144.05;73.34;56997.50;5020339;28;20454;-78
2024/02/18 04:59:09;;;;;;;10.63;5.40;;;14.20;99.90;;;-144.05;73.32;57014.50;5023128;28;20025;-81
2024/02/18 05:01:36;;;;;;;11.13;5.32;;;;;;;-144.05;73.50;57025.13;5023915;28;20040;-79
2024/02/18 05:04:02;;;;;;;8.77;5.28;;;7.80;99.90;;;-144.05;73.25;57027.25;5022098;28;20101;-80
2024/02/18 05:06:28;;;;;;;12.68;5.28;;;;;;;-144.05;73.13;57012.38;5017590;28;20102;-80
2024/02/18 05:08:54;;;;;;;10.13;4.95;;;7.10;99.90;;;-144.05;73.28;57008.13;5018190;28;20037;-80
2024/02/18 05:11:22;;;;;;;13.27;5.40;;;;;;;-144.05;73.45;57027.25;5020149;28;20022;-79
2024/02/18 05:13:48;;;;;;;15.32;6.38;;;;;;;-144.05;73.70;57008.13;5019372;28;20108;-79
2024/02/18 05:16:16;;;;;;;16.70;6.53;;;;;;;-144.05;73.20;57006.00;5024125;28;20053;-81
2024/02/18 05:18:47;;;;;;;10.38;5.78;;;9.50;99.90;;;-144.05;72.80;57018.75;5024218;28;20091;-81
2024/02/18 05:21:13;;;;;;;8.93;5.30;;;14.40;99.90;;;-144.05;73.03;57037.88;5024217;28;20022;-81
2024/02/18 05:23:40;;;;;;;10.90;5.00;;;;;;;-144.05;73.18;57010.25;5024293;28;20060;-78
2024/02/18 05:26:06;;;;;;;10.05;5.43;;;;;;;-144.05;73.16;57012.38;5043020;28;20133;-80
2024/02/18 05:28:35;;;;;;;9.88;5.43;;;8.70;99.90;;;-144.05;72.95;57023.00;5021052;28;20156;-81
2024/02/18 05:31:01;;;;;;;14.82;6.32;;;;;;;-144.05;73.07;56997.50;5015579;28;20407;-79
2024/02/18 05:33:27;;;;;;;11.45;6.50;;;8.20;99.90;;;-144.05;73.74;57010.25;5016129;28;20041;-78
2024/02/18 05:35:53;;;;;;;13.27;5.18;;;;;;;-144.05;73.65;57014.50;5018338;28;20037;-79
2024/02/18 05:38:19;;;;;;;16.30;6.53;;;7.60;99.90;;;-144.05;73.96;57001.75;5015637;28;20021;-78
2024/02/18 05:40:47;;;;;;;8.00;5.43;;;;;;;-144.05;74.48;57014.50;5016127;28;20119;-79
2024/02/18 05:43:13;;;;;;;17.38;7.03;;;7.00;99.90;;;-144.05;73.93;57023.00;5016287;28;20029;-80
2024/02/18 05:45:39;;;;;;;9.45;5.20;;;7.50;99.90;;;-144.05;74.07;57018.75;5019753;28;20026;-79
2024/02/18 05:48:05;;;;;;;8.80;5.85;;;7.30;99.90;;;-144.05;74.24;57027.25;5019956;28;20030;-80
2024/02/18 05:50:31;;;;;;;13.82;5.38;;;;;;;-144.05;74.02;57048.50;5019780;28;20043;-81
2024/02/18 05:52:57;;;;;;;11.15;5.25;;;6.70;99.90;;;-144.05;74.19;57006.00;5021249;28;20058;-80
2024/02/18 05:55:23;;;;;;;13.57;6.43;;;;;;;-144.05;74.19;57029.38;5022490;28;20029;-81
2024/02/18 05:57:49;;;;;;;9.38;5.45;;;;;;;-144.05;74.21;57027.25;5019873;28;20109;-81
2024/02/18 06:00:17;;;;;;;10.45;5.80;;;;;;;-144.05;74.29;57031.50;5016918;28;20050;-81
2024/02/18 06:02:43;;;;;;;9.40;5.13;;;;;;;-144.05;74.26;57010.25;5021888;28;20120;-80
2024/02/18 06:05:12;;;;;;;9.98;5.47;;;;;;;-144.05;74.12;57044.25;5022334;28;20092;-80
2024/02/18 06:07:38;;;;;;;10.00;5.30;;;7.20;99.90;;;-144.05;74.24;57014.50;5019744;28;20034;-80
2024/02/18 06:10:06;;;;;;;13.88;5.43;;;7.20;99.90;;;-144.05;74.05;57040.00;5021606;28;20094;-80
2024/02/18 06:12:32;;;;;;;9.25;5.15;;;6.70;99.90;;;-144.05;73.94;57014.50;5025265;28;20033;-80
2024/02/18 06:14:58;;;;;;;9.57;5.28;;;;;;;-144.05;74.05;57010.25;5039370;28;20061;-79
2024/02/18 06:17:24;;;;;;;9.20;5.43;;;;;;;-144.05;73.87;57035.75;5026881;28;20092;-79
2024/02/18 06:19:50;;;;;;;11.82;6.38;;;;;;;-144.05;73.72;57023.00;5021404;28;20066;-80
2024/02/18 06:22:16;;;;;;;9.68;4.40;;;;;;;-144.05;73.49;56999.63;5024256;28;20018;-81
2024/02/18 06:24:44;;;;;;;12.93;5.45;;;6.80;99.90;;;-144.05;74.24;57029.38;5030658;28;20021;-80
2024/02/18 06:27:10;;;;;;;11.35;5.25;;;7.80;99.90;;;-144.05;74.12;57035.75;5040076;28;20029;-79
2024/02/18 06:29:37;;;;;;;11.27;5.25;;;7.50;99.90;;;-144.05;73.86;57001.75;5027409;28;20030;-80
2024/02/18 06:32:03;;;;;;;8.18;5.22;;;11.10;99.90;;;-144.05;73.97;57025.13;5023764;28;20026;-79
2024/02/18 06:34:29;;;;;;;8.55;5.05;;;;;;;-144.05;73.83;57023.00;5024655;28;20033;-80
2024/02/18 06:36:55;;;;;;;8.13;5.07;;;10.90;99.90;;;-144.05;73.55;57003.88;5023445;28;20456;-80
2024/02/18 06:39:21;;;;;;;12.10;5.28;;;7.80;99.90;;;-144.05;73.64;57003.88;5027945;28;20032;-79
2024/02/18 06:41:48;;;;;;;11.25;4.72;;;;;;;-144.05;73.68;57025.13;5024471;28;20033;-78
2024/02/18 06:44:14;;;;;;;10.10;4.93;;;14.40;99.90;;;-144.05;73.44;57001.75;5024874;28;20037;-78
2024/02/18 06:46:41;;;;;;;9.68;5.25;;;;;;;-144.05;73.02;56993.25;5025150;28;20034;-79
2024/02/18 06:49:07;;;;;;;9.10;5.15;;;;;;;-144.05;72.78;57031.50;5018251;28;20057;-81
2024/02/18 06:51:33;;;;;;;11.38;4.85;;;;;;;-144.05;73.49;57018.75;5018758;28;20050;-80
2024/02/18 06:53:59;;;;;;;9.00;5.25;;;7.10;99.90;;;-144.05;73.10;56995.38;5022375;28;20064;-78
2024/02/18 06:56:26;;;;;;;9.55;4.70;;;14.50;99.90;;;-144.05;72.73;56999.63;5024151;28;20101;-76
2024/02/18 06:58:53;;;;;;;11.20;4.50;;;7.40;99.90;;;-144.05;73.40;57008.13;5024099;28;20554;-83
2024/02/18 07:01:19;;;;;;;9.55;4.63;;;;;;;-144.05;74.30;57042.13;5025105;28;20022;-80
2024/02/18 07:03:46;;;;;;;8.23;4.30;;;7.60;99.90;;;-144.05;74.03;57018.75;5023495;28;20041;-80
2024/02/18 07:06:13;;;;;;;8.20;4.55;;;;;;;-144.05;73.67;57012.38;5039343;28;20026;-80
2024/02/18 07:08:40;;;;;;;9.68;4.57;;;;;;;-144.05;74.04;57012.38;5027299;28;20034;-82
2024/02/18 07:11:05;;;;;;;12.13;4.90;;;6.90;99.90;;;-144.05;74.22;57008.13;5032474;28;20040;-77
2024/02/18 07:13:32;;;;;;;7.10;4.25;;;;;;;-144.05;74.19;56982.66;5037086;28;20053;-81
2024/02/18 07:15:57;;;;;;;8.27;4.10;;;6.90;99.90;;;-144.05;74.48;57012.38;5020300;28;20030;-76
2024/02/18 07:18:23;;;;;;;6.00;3.75;;;7.10;99.90;;;-144.05;74.22;57014.50;5021373;28;20018;-80
2024/02/18 07:20:49;;;;;;;10.27;3.95;;;;;;;-144.05;74.11;57003.88;5021552;28;20048;-78
2024/02/18 07:23:16;;;;;;;9.38;4.18;;;;;;;-144.05;73.79;57033.63;5024229;28;20032;-78
2024/02/18 07:25:42;;;;;;;15.75;4.63;;;;;;;-144.05;74.39;57020.88;5021563;28;20026;-80
2024/02/18 07:28:08;;;;;;;8.52;4.10;;;10.80;99.90;;;-144.05;74.63;57018.75;5025284;28;20026;-81
2024/02/18 07:30:34;;;;;;;10.02;3.92;;;;;;;-144.05;74.34;56993.25;5020816;28;20137;-80
2024/02/18 07:33:01;;;;;;;8.80;3.92;;;7.30;99.90;;;-144.05;74.75;57042.13;5022736;28;20026;-76
2024/02/18 07:35:28;;;;;;;10.05;4.05;;;;;;;-144.05;74.32;56991.13;5019906;28;20480;-80
2024/02/18 07:37:56;;;;;;;7.85;4.05;;;7.30;99.90;;;-144.05;74.61;57018.75;5021850;28;20029;-79
2024/02/18 07:40:22;;;;;;;6.00;3.95;;;;;;;-144.05;75.18;57040.00;5021590;28;20021;-80
2024/02/18 07:42:48;;;;;;;9.20;3.88;;;10.80;99.90;;;-144.05;75.44;57027.25;5022587;28;20041;-80
2024/02/18 07:45:13;;;;;;;10.75;4.15;;;8.40;99.90;;;-144.05;75.90;57008.13;5022287;28;20030;-80
2024/02/18 07:47:40;;;;;;;9.75;3.90;;;;;;;-144.05;76.25;57050.63;5022442;28;20049;-81
2024/02/18 07:50:07;;;;;;;7.72;3.63;;;11.00;99.90;;;-144.05;76.50;57003.88;5020737;28;20049;-79
2024/02/18 07:52:33;;;;;;;10.18;3.72;;;10.60;99.90;;;-144.05;76.96;57027.25;5021226;28;20097;-81
2024/02/18 07:54:59;;;;;;;8.10;4.00;;;10.50;99.90;;;-144.05;78.11;56997.50;5020759;28;20049;-80
2024/02/18 07:57:26;;;;;;;8.18;4.00;;;;;;;-144.05;77.78;56999.63;5022690;28;20026;-81
2024/02/18 07:59:53;;;;;;;8.15;3.45;;;7.60;99.90;;;-144.05;78.09;57027.25;5024158;28;20033;-80
2024/02/18 08:02:19;;;;;;;7.65;4.03;;;7.20;99.90;;;-144.05;78.34;57025.13;5021234;28;20140;-78
2024/02/18 08:04:45;;;;;;;7.65;3.67;;;;;;;-144.05;79.09;56995.38;5023558;28;20034;-80
2024/02/18 08:07:11;;;;;;;7.65;3.60;;;7.60;99.90;;;-144.05;79.27;57035.75;5024289;28;20060;-78
2024/02/18 08:09:37;;;;;;;8.43;3.67;;;;;;;-144.05;79.02;57008.13;5023525;28;20026;-80
2024/02/18 08:12:04;;;;;;;9.40;3.60;;;;;;;-144.05;78.59;56991.13;5025806;28;20038;-79
2024/02/18 08:14:30;;;;;;;8.82;3.40;;;;;;;-144.05;78.72;57020.88;5021340;28;20089;-82
2024/02/18 08:16:56;;;;;;;6.57;3.75;;;;;;;-144.05;78.91;57006.00;5022932;28;20053;-79
2024/02/18 08:19:22;;;;;;;6.97;4.15;;;10.60;99.90;;;-144.05;79.86;57052.75;5027728;28;20025;-81
2024/02/18 08:21:49;;;;;;;6.90;3.30;;;;;;;-144.05;79.84;57044.25;5022425;28;20057;-81
2024/02/18 08:24:15;;;;;;;8.00;3.33;;;;;;;-144.05;80.11;57016.63;5021365;28;20052;-79
2024/02/18 08:26:41;;;;;;;8.57;2.70;;;;;;;-144.05;79.55;57012.38;5022517;28;20014;-78
2024/02/18 08:29:08;;;;;;;7.72;3.15;;;;;;;-144.05;79.29;57054.88;5023297;28;20053;-79
2024/02/18 08:31:33;;;;;;;6.72;3.42;;;7.20;99.90;;;-144.05;79.95;57012.38;5021592;28;20049;-79
2024/02/18 08:34:03;;;;;;;9.57;3.03;;;;;;;-144.05;79.43;57056.97;5038367;28;20083;-81
2024/02/18 08:36:29;;;;;;;6.38;3.10;;;;;;;-144.05;79.82;57018.75;5022220;28;20029;-81
2024/02/18 08:38:55;;;;;;;8.70;2.90;;;10.50;99.90;;;-144.05;79.98;57035.75;5020626;28;20029;-78
2024/02/18 08:41:22;;;;;;;6.15;3.28;;;;;;;-144.05;80.30;57023.00;5021465;28;20036;-80
2024/02/18 08:43:52;;;;;;;7.47;3.00;;;7.40;99.90;;;-144.05;80.15;57031.50;5026163;28;20065;-81
2024/02/18 08:46:19;;;;;;;8.77;2.88;;;;;;;-144.05;80.21;57029.38;5040750;28;20078;-81
2024/02/18 08:48:46;;;;;;;4.65;2.70;;;7.30;99.90;;;-144.05;79.61;57031.50;5024012;28;20042;-81
2024/02/18 08:51:12;;;;;;;7.82;3.25;;;13.80;99.90;;;-144.05;79.95;56993.25;5021770;28;20589;-80
2024/02/18 08:53:40;;;;;;;7.63;2.60;;;7.50;99.90;;;-144.05;79.52;56999.63;5020631;28;20034;-80
2024/02/18 08:56:10;;;;;;;6.72;3.10;;;7.30;99.90;;;-144.05;79.65;57016.63;5019515;28;20038;-78
2024/02/18 08:58:36;;;;;;;8.93;3.42;;;7.60;99.90;;;-144.05;79.54;57012.38;5016338;28;20033;-78
2024/02/18 09:01:03;;;;;;;5.97;3.05;;;7.10;99.90;;;-144.05;79.65;57044.25;5035018;28;20340;-79
2024/02/18 09:03:30;;;;;;;8.65;3.50;;;10.40;99.90;;;-144.05;80.02;57031.50;5014365;28;20026;-83
2024/02/18 09:05:57;;;;;;;10.57;3.40;;;7.20;99.90;;;-144.05;80.47;57023.00;5012389;28;20407;-78
2024/02/18 09:08:23;;;;;;;6.97;3.28;;;7.40;99.90;;;-144.05;79.80;57003.88;5013335;28;20026;-79
2024/02/18 09:10:53;;;;;;;6.43;3.85;;;10.00;99.90;;;-144.05;79.47;56986.91;5014756;28;20095;-82
2024/02/18 09:13:21;;;;;;;12.65;3.55;;;7.20;99.90;;;-144.05;79.50;57023.00;5014476;28;20104;-82
2024/02/18 09:15:48;;;;;;;6.80;3.13;;;7.40;99.90;;;-144.05;79.99;57010.25;5014285;28;20494;-79
2024/02/18 09:18:14;;;;;;;8.40;3.45;;;10.70;99.90;;;-144.05;79.32;57023.00;5014593;28;20686;-80
2024/02/18 09:20:41;;;;;;;6.93;3.30;;;7.50;99.90;;;-144.05;79.54;57031.50;5016601;28;20025;-80
2024/02/18 09:23:07;;;;;;;7.22;3.75;;;10.70;99.90;;;-144.05;79.46;57025.13;5011953;28;20030;-79
2024/02/18 09:25:32;;;;;;;5.18;3.25;;;8.30;99.90;;;-144.05;78.88;56993.25;5015535;28;20022;-79
2024/02/18 09:27:59;;;;;;;5.70;3.15;;;;;;;-144.05;79.52;57052.75;5030603;28;20052;-78
2024/02/18 09:30:25;;;;;;;8.98;3.45;;;7.30;99.90;;;-144.05;79.19;57023.00;5014156;28;20434;-77
2024/02/18 09:32:51;;;;;;;10.13;3.63;;;;;;;-144.05;78.73;57014.50;5007918;28;20033;-78
2024/02/18 09:35:17;;;;;;;6.43;3.45;;;8.60;99.90;;;-144.05;79.60;57035.75;5012158;28;20021;-80
2024/02/18 09:37:44;;;;;;;6.03;3.28;;;;;;;-144.05;78.41;57006.00;5012180;28;20029;-79
2024/02/18 09:40:11;;;;;;;9.88;3.75;;;7.60;99.90;;;-144.05;79.07;57018.75;5013474;28;20026;-79
2024/02/18 09:42:42;;;;;;;10.48;3.35;;;8.70;99.90;;;-144.05;78.98;57023.00;5013272;28;20072;-80
2024/02/18 09:45:14;;;;;;;8.07;3.22;;;8.70;99.90;;;-144.05;78.29;57044.25;5034080;28;20029;-81
2024/02/18 09:47:44;;;;;;;6.70;2.88;;;7.20;99.90;;;-144.05;78.33;57016.63;5023576;28;20025;-78
2024/02/18 09:50:11;;;;;;;5.50;2.50;;;7.10;99.90;;;-144.05;76.73;57040.00;5033209;28;20018;-77
2024/02/18 09:52:42;;;;;;;4.68;2.42;;;7.30;99.90;;;-144.05;77.26;57023.00;5033174;28;20037;-79
2024/02/18 09:55:10;;;;;;;7.05;2.40;;;7.30;99.90;;;-144.05;76.81;57029.38;5031491;28;20048;-76
2024/02/18 09:57:40;;;;;;;5.30;2.80;;;7.60;99.90;;;-144.05;76.65;57023.00;5034021;28;20058;-77
2024/02/18 10:00:08;;;;;;;6.13;2.60;;;8.90;99.90;;;-144.05;76.44;56995.38;5034037;28;20384;-78
2024/02/18 10:02:36;;;;;;;4.03;2.17;;;7.10;99.90;;;-144.05;74.66;57018.75;5028854;28;20022;-78
2024/02/18 10:05:04;;;;;;;9.63;2.65;;;8.00;99.90;;;-144.05;74.95;57033.63;5025958;28;20052;-79
2024/02/18 10:07:35;;;;;;;4.88;2.30;;;9.00;99.90;;;-144.05;74.86;57023.00;5020217;28;20080;-79
2024/02/18 10:10:03;;;;;;;8.02;2.45;;;7.10;99.90;;;-144.05;74.24;57010.25;5017029;28;20059;-78
2024/02/18 10:12:34;;;;;;;4.93;2.30;;;7.10;99.90;;;-144.05;72.94;57001.75;5014473;28;20026;-78
2024/02/18 10:15:04;;;;;;;7.57;2.70;;;6.90;99.90;;;-144.05;73.26;56993.25;5015328;28;20038;-79
2024/02/18 10:17:32;;;;;;;8.02;2.40;;;7.50;99.90;;;-144.05;73.00;57031.50;5014907;28;20048;-81
2024/02/18 10:19:58;;;;;;;7.60;2.30;;;8.30;99.90;;;-144.05;72.81;56991.13;5016428;28;20026;-82
2024/02/18 10:22:26;;;;;;;3.25;1.90;;;8.40;99.90;;;-144.05;72.33;57016.63;5014141;28;20022;-79
2024/02/18 10:24:54;;;;;;;5.75;2.10;;;9.10;99.90;;;-144.05;71.98;57027.25;5010960;28;20050;-79
2024/02/18 10:27:21;;;;;;;5.63;2.50;;;7.40;99.90;;;-144.05;71.65;57027.25;5030462;28;20120;-80